Main page
METAR-TAF:

METAR-TAF

Airports :

Brighton City Airport (Shoreham Airport)

Brighton, England

latitude: 50-50N, longitude: 000-17W, elevation: 2 m

Current weather observation

The report was made 14 hours and 20 minutes ago, at 16:50 UTC
Wind 10 kt from the Northwest
Temperature 18°C
Humidity 42%
Pressure 1020 hPa
Visibility 10 km or more
no clouds below 1500 m and no cumulonimbus

METAR: EGKA 101650Z 31010KT CAVOK 18/05 Q1020

Time: 08:10 (07:10 UTC)

Forecast

The report was made 17 hours and 11 minutes ago, at 13:59 UTC
Forecast valid from 10 at 15 UTC to 10 at 17 UTC
Wind 11 kt from the Northwest
Visibility 10 km or more
Few clouds at a height of 3500 ft

TAF: EGKA 101359Z 1015/1017 32011KT 9999 FEW035

Weather observations and forecasts of more than 4000 airports (METAR and TAF reports).

The available stations are represented by yellow and red dots on the map.

Hover mouse over dot to see the name of the station.

Then click to see weather observations and forecasts.

To change the map : click on the green buttons with a black cross to zoom in, on the green button with a dash to zoom out, or on the green arrows for adjacent maps.


METAR-TAF: